createdAt,value
2018-08-22T00:01:39.581Z,20.90
2018-08-22T00:05:33.518Z,20.90
2018-08-22T00:09:27.457Z,20.80
2018-08-22T00:13:21.409Z,20.70
2018-08-22T00:17:15.447Z,20.60
2018-08-22T00:21:09.475Z,20.60
2018-08-22T00:25:03.417Z,20.50
2018-08-22T00:28:57.847Z,20.50
2018-08-22T00:32:51.914Z,20.50
2018-08-22T00:36:46.142Z,20.50
2018-08-22T00:40:40.123Z,20.60
2018-08-22T00:44:34.087Z,20.50
2018-08-22T00:48:28.035Z,20.50
2018-08-22T00:52:22.023Z,20.50
2018-08-22T00:56:16.032Z,20.50
2018-08-22T01:00:10.023Z,20.50
2018-08-22T01:04:03.992Z,20.60
2018-08-22T01:07:58.126Z,20.60
2018-08-22T01:11:52.090Z,20.50
2018-08-22T01:15:46.126Z,20.50
2018-08-22T01:19:40.074Z,20.50
2018-08-22T01:23:34.050Z,20.40
2018-08-22T01:27:27.952Z,20.30
2018-08-22T01:31:21.963Z,20.20
2018-08-22T01:35:15.903Z,20.00
2018-08-22T01:39:10.159Z,19.90
2018-08-22T01:43:04.098Z,19.80
2018-08-22T01:46:58.058Z,19.70
2018-08-22T01:50:52.027Z,19.60
2018-08-22T01:54:48.154Z,19.60
2018-08-22T01:58:42.182Z,19.60
2018-08-22T02:02:36.126Z,19.50
2018-08-22T02:06:30.123Z,19.60
2018-08-22T02:10:24.114Z,19.70
2018-08-22T02:14:18.093Z,19.70
2018-08-22T02:18:12.121Z,19.60
2018-08-22T02:22:06.111Z,19.60
2018-08-22T02:26:00.183Z,19.60
2018-08-22T02:29:54.193Z,19.60
2018-08-22T02:33:48.459Z,19.80
2018-08-22T02:37:42.483Z,19.80
2018-08-22T02:41:36.459Z,19.90
2018-08-22T02:45:30.466Z,19.90
2018-08-22T02:49:24.656Z,20.00
2018-08-22T02:53:18.626Z,20.10
2018-08-22T02:57:12.648Z,20.20
2018-08-22T03:01:06.653Z,20.20
2018-08-22T03:05:00.649Z,20.20
2018-08-22T03:08:54.765Z,20.10
2018-08-22T03:12:49.009Z,19.90
2018-08-22T03:16:42.999Z,19.70
2018-08-22T03:20:36.940Z,19.60
2018-08-22T03:24:30.932Z,19.50
2018-08-22T03:28:24.975Z,19.40
2018-08-22T03:32:18.910Z,19.30
2018-08-22T03:36:13.023Z,19.20
2018-08-22T03:40:07.347Z,19.10
2018-08-22T03:44:01.685Z,19.10
2018-08-22T03:47:56.146Z,19.00
2018-08-22T03:51:50.157Z,18.90
2018-08-22T03:55:44.125Z,18.90
2018-08-22T03:59:38.842Z,18.80
2018-08-22T04:03:33.351Z,18.70
2018-08-22T04:07:27.359Z,18.60
2018-08-22T04:11:21.390Z,18.60
2018-08-22T04:15:15.403Z,18.60
2018-08-22T04:19:09.397Z,18.60
2018-08-22T04:23:05.067Z,18.50
2018-08-22T04:26:59.154Z,18.50
2018-08-22T04:30:53.341Z,18.50
2018-08-22T04:34:47.498Z,18.50
2018-08-22T04:38:41.425Z,18.50
2018-08-22T04:42:35.425Z,18.50
2018-08-22T04:46:29.427Z,18.50
2018-08-22T04:50:23.496Z,18.60
2018-08-22T04:54:17.457Z,18.70
2018-08-22T04:58:11.657Z,18.90
2018-08-22T05:02:05.642Z,19.00
2018-08-22T05:05:59.720Z,19.10
2018-08-22T05:09:53.770Z,19.20
2018-08-22T05:13:48.618Z,19.30
2018-08-22T05:17:42.660Z,19.30
2018-08-22T05:21:36.948Z,19.40
2018-08-22T05:25:31.010Z,19.50
2018-08-22T05:29:25.060Z,19.60
2018-08-22T05:33:20.897Z,19.80
2018-08-22T05:37:14.918Z,19.80
2018-08-22T05:41:09.018Z,19.90
2018-08-22T05:45:03.115Z,20.00
2018-08-22T05:48:57.234Z,20.00
2018-08-22T05:52:51.337Z,20.00
2018-08-22T05:56:45.380Z,20.10
2018-08-22T06:00:39.563Z,20.10
2018-08-22T06:04:34.278Z,20.20
2018-08-22T06:08:28.223Z,20.20
2018-08-22T06:12:22.180Z,20.30
2018-08-22T06:16:16.229Z,20.40
2018-08-22T06:20:10.353Z,20.60
2018-08-22T06:24:04.545Z,20.80
2018-08-22T06:27:59.575Z,21.00
2018-08-22T06:31:53.721Z,21.10
2018-08-22T06:35:47.771Z,21.30
2018-08-22T06:39:41.859Z,21.50
2018-08-22T06:43:35.870Z,21.60
2018-08-22T06:47:29.966Z,21.70
2018-08-22T06:51:24.168Z,21.90
2018-08-22T06:55:19.428Z,22.00
2018-08-22T06:59:13.595Z,22.10
2018-08-22T07:03:07.699Z,22.20
2018-08-22T07:07:01.728Z,22.30
2018-08-22T07:10:55.736Z,22.40
2018-08-22T07:14:49.869Z,22.60
2018-08-22T07:18:44.112Z,22.70
2018-08-22T07:22:38.292Z,22.80
2018-08-22T07:26:32.298Z,22.90
2018-08-22T07:30:26.652Z,23.00
2018-08-22T07:34:20.928Z,23.10
2018-08-22T07:38:15.018Z,23.20
2018-08-22T07:42:09.095Z,23.30
2018-08-22T07:46:03.143Z,23.40
2018-08-22T07:49:57.591Z,23.50
2018-08-22T07:53:51.630Z,23.60
2018-08-22T07:57:45.741Z,23.70
2018-08-22T08:01:40.018Z,23.70
2018-08-22T08:05:34.216Z,23.80
2018-08-22T08:09:28.120Z,23.90
2018-08-22T08:13:29.520Z,24.00
2018-08-22T08:17:23.726Z,24.00
2018-08-22T08:21:17.787Z,24.10
2018-08-22T08:25:11.853Z,24.20
2018-08-22T08:29:05.981Z,24.30
2018-08-22T08:32:59.995Z,24.30
2018-08-22T08:36:53.998Z,24.40
2018-08-22T08:40:48.048Z,24.40
2018-08-22T08:44:42.300Z,24.60
2018-08-22T08:48:36.864Z,24.60
2018-08-22T08:52:30.867Z,24.70
2018-08-22T08:56:24.854Z,24.80
2018-08-22T09:00:19.006Z,24.80
2018-08-22T09:04:13.195Z,24.90
2018-08-22T09:08:07.269Z,24.90
2018-08-22T09:12:01.680Z,24.90
2018-08-22T09:15:55.734Z,25.00
2018-08-22T09:19:49.938Z,25.20
2018-08-22T09:23:45.990Z,25.20
2018-08-22T09:27:40.435Z,25.30
2018-08-22T09:31:34.489Z,25.40
2018-08-22T09:35:29.186Z,25.50
2018-08-22T09:39:23.169Z,25.60
2018-08-22T09:43:17.201Z,25.70
2018-08-22T09:47:11.704Z,25.80
2018-08-22T09:51:05.957Z,25.90
2018-08-22T09:55:01.615Z,25.90
2018-08-22T09:58:55.720Z,25.90
2018-08-22T10:02:50.025Z,26.00
2018-08-22T10:06:47.815Z,26.10
2018-08-22T10:10:43.667Z,26.10
2018-08-22T10:14:37.814Z,26.20
2018-08-22T10:18:31.902Z,26.20
2018-08-22T10:22:27.369Z,26.30
2018-08-22T10:26:21.628Z,26.40
2018-08-22T10:30:15.791Z,26.50
2018-08-22T10:34:09.859Z,26.50
2018-08-22T10:38:03.935Z,26.70
2018-08-22T10:41:57.895Z,26.80
2018-08-22T10:45:52.541Z,26.90
2018-08-22T10:49:46.680Z,27.00
2018-08-22T10:53:41.659Z,27.10
2018-08-22T10:57:36.622Z,27.10
2018-08-22T11:01:30.769Z,27.20
2018-08-22T11:05:25.395Z,27.10
2018-08-22T11:09:19.482Z,27.10
2018-08-22T11:13:13.777Z,27.10
2018-08-22T11:17:08.118Z,27.10
2018-08-22T11:21:13.347Z,27.10
2018-08-22T11:25:18.823Z,27.10
2018-08-22T11:29:24.289Z,27.20
2018-08-22T11:33:29.903Z,27.20
2018-08-22T11:37:24.053Z,27.30
2018-08-22T11:41:19.133Z,27.40
2018-08-22T11:45:13.126Z,27.50
2018-08-22T11:49:07.153Z,27.50
2018-08-22T11:53:01.235Z,27.60
2018-08-22T11:56:55.268Z,27.60
2018-08-22T12:00:54.061Z,27.70
2018-08-22T12:04:48.427Z,27.80
2018-08-22T12:08:42.640Z,27.90
2018-08-22T12:12:43.894Z,28.00
2018-08-22T12:16:38.398Z,28.10
2018-08-22T12:20:32.561Z,28.10
2018-08-22T12:24:26.549Z,28.10
2018-08-22T12:28:20.926Z,28.10
2018-08-22T12:32:15.398Z,28.10
2018-08-22T12:36:09.385Z,28.20
2018-08-22T12:40:03.620Z,28.20
2018-08-22T12:43:57.681Z,28.30
2018-08-22T12:47:51.785Z,28.30
2018-08-22T12:51:46.119Z,28.40
2018-08-22T12:55:40.418Z,28.40
2018-08-22T12:59:34.613Z,28.40
2018-08-22T13:03:28.578Z,28.50
2018-08-22T13:07:22.678Z,28.60
2018-08-22T13:11:16.661Z,28.70
2018-08-22T13:15:10.949Z,28.80
2018-08-22T13:19:05.043Z,28.80
2018-08-22T13:22:59.086Z,28.90
2018-08-22T13:26:53.120Z,29.00
2018-08-22T13:30:47.235Z,29.00
2018-08-22T13:34:41.290Z,29.10
2018-08-22T13:38:36.112Z,29.10
2018-08-22T13:42:41.296Z,29.00
2018-08-22T13:46:35.411Z,28.80
2018-08-22T13:50:29.565Z,28.80
2018-08-22T13:54:23.767Z,29.10
2018-08-22T13:58:17.905Z,29.40
2018-08-22T14:02:12.004Z,29.50
2018-08-22T14:06:07.075Z,29.50
2018-08-22T14:10:01.205Z,29.40
2018-08-22T14:13:55.390Z,29.40
2018-08-22T14:17:49.998Z,29.40
2018-08-22T14:21:44.036Z,29.40
2018-08-22T14:25:38.143Z,29.50
2018-08-22T14:29:32.216Z,29.50
2018-08-22T14:33:26.360Z,29.50
2018-08-22T14:37:20.324Z,29.50
2018-08-22T14:41:14.395Z,29.50
2018-08-22T14:45:08.755Z,29.50
2018-08-22T14:49:02.946Z,29.40
2018-08-22T14:52:57.081Z,29.50
2018-08-22T14:56:51.104Z,29.50
2018-08-22T15:00:46.291Z,29.50
2018-08-22T15:04:40.291Z,29.50
2018-08-22T15:08:34.326Z,29.50
2018-08-22T15:12:28.588Z,29.50
2018-08-22T15:16:22.811Z,29.50
2018-08-22T15:20:16.880Z,29.50
2018-08-22T15:24:10.953Z,29.60
2018-08-22T15:28:05.203Z,29.60
2018-08-22T15:31:59.309Z,29.50
2018-08-22T15:35:53.295Z,29.50
2018-08-22T15:39:47.761Z,29.50
2018-08-22T15:43:41.856Z,29.50
2018-08-22T15:47:35.938Z,29.50
2018-08-22T15:51:32.126Z,29.50
2018-08-22T15:55:26.218Z,29.50
2018-08-22T15:59:20.175Z,29.30
2018-08-22T16:03:14.129Z,29.20
2018-08-22T16:07:08.105Z,29.10
2018-08-22T16:11:06.733Z,29.20
2018-08-22T16:15:00.755Z,29.20
2018-08-22T16:18:54.695Z,29.10
2018-08-22T16:22:48.835Z,29.00
2018-08-22T16:26:43.957Z,28.90
2018-08-22T16:30:38.094Z,28.80
2018-08-22T16:34:36.382Z,28.70
2018-08-22T16:38:30.348Z,28.60
2018-08-22T16:42:29.665Z,28.50
2018-08-22T16:46:24.203Z,28.50
2018-08-22T16:50:18.716Z,28.40
2018-08-22T16:54:12.687Z,28.40
2018-08-22T16:58:06.635Z,28.30
2018-08-22T17:02:00.670Z,28.20
2018-08-22T17:06:06.003Z,28.00
2018-08-22T17:10:00.058Z,28.00
2018-08-22T17:13:54.432Z,27.90
2018-08-22T17:17:48.606Z,27.80
2018-08-22T17:21:42.617Z,27.70
2018-08-22T17:25:36.599Z,27.60
2018-08-22T17:29:30.595Z,27.50
2018-08-22T17:34:02.674Z,27.40
2018-08-22T17:37:58.685Z,27.20
2018-08-22T17:41:52.889Z,27.10
2018-08-22T17:45:46.933Z,27.00
2018-08-22T17:49:41.469Z,26.90
2018-08-22T17:53:37.276Z,26.70
2018-08-22T17:57:31.404Z,26.60
2018-08-22T18:01:26.462Z,26.50
2018-08-22T18:05:21.254Z,26.40
2018-08-22T18:09:15.234Z,26.20
2018-08-22T18:13:14.626Z,26.10
2018-08-22T18:17:08.594Z,26.00
2018-08-22T18:21:02.595Z,25.90
2018-08-22T18:24:57.356Z,25.90
2018-08-22T18:28:51.329Z,25.70
2018-08-22T18:32:45.407Z,25.50
2018-08-22T18:36:39.403Z,25.40
2018-08-22T18:40:33.504Z,25.30
2018-08-22T18:44:27.555Z,25.20
2018-08-22T18:48:21.723Z,25.00
2018-08-22T18:52:15.824Z,24.90
2018-08-22T18:56:16.175Z,24.80
2018-08-22T19:00:10.202Z,24.70
2018-08-22T19:04:04.227Z,24.70
2018-08-22T19:08:11.218Z,24.70
2018-08-22T19:12:05.224Z,24.60
2018-08-22T19:16:02.461Z,24.50
2018-08-22T19:19:56.438Z,24.40
2018-08-22T19:23:55.957Z,24.30
2018-08-22T19:27:49.984Z,24.20
2018-08-22T19:31:48.348Z,24.10
2018-08-22T19:35:42.872Z,24.00
2018-08-22T19:39:37.502Z,24.00
2018-08-22T19:43:31.649Z,24.00
2018-08-22T19:47:25.777Z,23.90
2018-08-22T19:51:19.996Z,23.90
2018-08-22T19:55:13.996Z,23.80
2018-08-22T19:59:08.187Z,23.70
2018-08-22T20:03:02.318Z,23.60
2018-08-22T20:06:56.283Z,23.60
2018-08-22T20:10:50.341Z,23.50
2018-08-22T20:14:50.769Z,23.40
2018-08-22T20:18:47.314Z,23.30
2018-08-22T20:22:42.759Z,23.20
2018-08-22T20:26:38.946Z,23.10
2018-08-22T20:30:33.020Z,23.10
2018-08-22T20:34:27.057Z,23.10
2018-08-22T20:38:21.040Z,23.00
2018-08-22T20:42:16.148Z,23.00
2018-08-22T20:46:10.140Z,22.90
2018-08-22T20:50:04.211Z,22.80
2018-08-22T20:54:02.428Z,22.70
2018-08-22T20:57:56.662Z,22.70
2018-08-22T21:01:54.888Z,22.60
2018-08-22T21:05:48.972Z,22.60
2018-08-22T21:09:43.277Z,22.50
2018-08-22T21:13:39.092Z,22.50
2018-08-22T21:17:33.323Z,22.40
2018-08-22T21:21:27.312Z,22.40
2018-08-22T21:25:21.881Z,22.30
2018-08-22T21:29:15.931Z,22.20
2018-08-22T21:33:10.489Z,22.10
2018-08-22T21:37:14.471Z,22.10
2018-08-22T21:41:09.886Z,22.10
2018-08-22T21:45:04.157Z,22.10
2018-08-22T21:49:02.726Z,22.10
2018-08-22T21:53:00.554Z,22.00
2018-08-22T21:56:54.821Z,21.90
2018-08-22T22:00:48.906Z,21.90
2018-08-22T22:04:43.100Z,21.80
2018-08-22T22:08:41.692Z,21.70
2018-08-22T22:12:36.673Z,21.60
2018-08-22T22:16:31.486Z,21.50
2018-08-22T22:20:25.481Z,21.50
2018-08-22T22:24:19.462Z,21.50
2018-08-22T22:28:13.616Z,21.40
2018-08-22T22:32:07.791Z,21.30
2018-08-22T22:36:01.735Z,21.20
2018-08-22T22:39:55.713Z,21.10
2018-08-22T22:43:49.642Z,21.10
2018-08-22T22:47:44.036Z,21.00
2018-08-22T22:51:38.047Z,21.00
2018-08-22T22:55:32.158Z,20.90
2018-08-22T22:59:26.213Z,20.80
2018-08-22T23:03:20.315Z,20.80
2018-08-22T23:07:21.456Z,20.70
2018-08-22T23:11:15.425Z,20.70
2018-08-22T23:15:12.257Z,20.70
2018-08-22T23:19:06.259Z,20.70
2018-08-22T23:23:00.329Z,20.60
2018-08-22T23:26:54.342Z,20.70
2018-08-22T23:30:48.408Z,20.70
2018-08-22T23:34:42.515Z,20.70
2018-08-22T23:38:38.082Z,20.60
2018-08-22T23:42:32.062Z,20.60
2018-08-22T23:46:26.108Z,20.50
2018-08-22T23:50:20.284Z,20.50
2018-08-22T23:54:14.256Z,20.40
2018-08-22T23:58:08.277Z,20.40
